sensor_id;sensor_type;location;lat;lon;timestamp;P1;durP1;ratioP1;P2;durP2;ratioP2
68803;SDS011;55787;52.678;13.314;2022-08-30T00:00:31;7.30;;;2.30;;
68803;SDS011;55787;52.678;13.314;2022-08-30T00:03:16;9.30;;;2.90;;
68803;SDS011;55787;52.678;13.314;2022-08-30T00:05:44;7.55;;;2.58;;
68803;SDS011;55787;52.678;13.314;2022-08-30T00:08:11;7.53;;;2.60;;
68803;SDS011;55787;52.678;13.314;2022-08-30T00:10:39;7.23;;;2.30;;
68803;SDS011;55787;52.678;13.314;2022-08-30T00:13:07;8.73;;;2.75;;
68803;SDS011;55787;52.678;13.314;2022-08-30T00:15:34;8.88;;;2.78;;
68803;SDS011;55787;52.678;13.314;2022-08-30T00:18:01;7.18;;;2.40;;
68803;SDS011;55787;52.678;13.314;2022-08-30T00:20:28;7.28;;;2.60;;
68803;SDS011;55787;52.678;13.314;2022-08-30T00:22:56;7.73;;;2.37;;
68803;SDS011;55787;52.678;13.314;2022-08-30T00:25:23;7.80;;;2.25;;
68803;SDS011;55787;52.678;13.314;2022-08-30T00:27:50;9.50;;;2.65;;
68803;SDS011;55787;52.678;13.314;2022-08-30T00:30:17;7.53;;;2.50;;
68803;SDS011;55787;52.678;13.314;2022-08-30T00:32:46;9.32;;;2.67;;
68803;SDS011;55787;52.678;13.314;2022-08-30T00:35:14;7.97;;;2.63;;
68803;SDS011;55787;52.678;13.314;2022-08-30T00:37:42;8.45;;;2.58;;
68803;SDS011;55787;52.678;13.314;2022-08-30T00:40:10;8.65;;;2.75;;
68803;SDS011;55787;52.678;13.314;2022-08-30T00:42:37;7.28;;;2.50;;
68803;SDS011;55787;52.678;13.314;2022-08-30T00:45:12;8.00;;;2.67;;
68803;SDS011;55787;52.678;13.314;2022-08-30T00:47:44;8.53;;;2.70;;
68803;SDS011;55787;52.678;13.314;2022-08-30T00:50:11;8.05;;;2.80;;
68803;SDS011;55787;52.678;13.314;2022-08-30T00:52:40;8.88;;;3.17;;
68803;SDS011;55787;52.678;13.314;2022-08-30T00:55:09;8.85;;;2.83;;
68803;SDS011;55787;52.678;13.314;2022-08-30T00:57:40;7.53;;;2.53;;
68803;SDS011;55787;52.678;13.314;2022-08-30T01:00:08;8.60;;;3.10;;
68803;SDS011;55787;52.678;13.314;2022-08-30T01:02:35;9.05;;;3.28;;
68803;SDS011;55787;52.678;13.314;2022-08-30T01:05:03;7.60;;;2.53;;
68803;SDS011;55787;52.678;13.314;2022-08-30T01:07:31;11.30;;;3.20;;
68803;SDS011;55787;52.678;13.314;2022-08-30T01:10:00;8.35;;;2.88;;
68803;SDS011;55787;52.678;13.314;2022-08-30T01:12:27;8.90;;;3.10;;
68803;SDS011;55787;52.678;13.314;2022-08-30T01:14:55;9.25;;;3.22;;
68803;SDS011;55787;52.678;13.314;2022-08-30T01:17:24;10.40;;;3.47;;
68803;SDS011;55787;52.678;13.314;2022-08-30T01:19:52;9.57;;;3.40;;
68803;SDS011;55787;52.678;13.314;2022-08-30T01:25:10;10.03;;;3.63;;
68803;SDS011;55787;52.678;13.314;2022-08-30T01:27:40;12.27;;;4.10;;
68803;SDS011;55787;52.678;13.314;2022-08-30T01:30:11;10.63;;;4.15;;
68803;SDS011;55787;52.678;13.314;2022-08-30T01:32:40;9.95;;;3.70;;
68803;SDS011;55787;52.678;13.314;2022-08-30T01:35:09;11.45;;;3.88;;
68803;SDS011;55787;52.678;13.314;2022-08-30T01:37:37;10.20;;;3.60;;
68803;SDS011;55787;52.678;13.314;2022-08-30T01:40:04;10.10;;;3.83;;
68803;SDS011;55787;52.678;13.314;2022-08-30T01:42:33;10.05;;;3.80;;
68803;SDS011;55787;52.678;13.314;2022-08-30T01:45:00;9.88;;;3.45;;
68803;SDS011;55787;52.678;13.314;2022-08-30T01:47:26;10.52;;;3.47;;
68803;SDS011;55787;52.678;13.314;2022-08-30T01:49:53;10.80;;;3.50;;
68803;SDS011;55787;52.678;13.314;2022-08-30T01:52:19;10.77;;;3.90;;
68803;SDS011;55787;52.678;13.314;2022-08-30T01:54:46;10.75;;;3.83;;
68803;SDS011;55787;52.678;13.314;2022-08-30T01:57:14;10.38;;;3.55;;
68803;SDS011;55787;52.678;13.314;2022-08-30T01:59:43;10.32;;;3.47;;
68803;SDS011;55787;52.678;13.314;2022-08-30T02:02:13;11.10;;;3.43;;
68803;SDS011;55787;52.678;13.314;2022-08-30T02:04:42;9.90;;;3.42;;
68803;SDS011;55787;52.678;13.314;2022-08-30T02:07:09;9.63;;;3.42;;
68803;SDS011;55787;52.678;13.314;2022-08-30T02:09:36;11.85;;;3.63;;
68803;SDS011;55787;52.678;13.314;2022-08-30T02:12:03;10.05;;;3.55;;
68803;SDS011;55787;52.678;13.314;2022-08-30T02:14:35;10.20;;;3.50;;
68803;SDS011;55787;52.678;13.314;2022-08-30T02:17:04;9.38;;;3.55;;
68803;SDS011;55787;52.678;13.314;2022-08-30T02:19:32;8.95;;;3.30;;
68803;SDS011;55787;52.678;13.314;2022-08-30T02:21:59;10.00;;;3.50;;
68803;SDS011;55787;52.678;13.314;2022-08-30T02:24:25;10.48;;;3.78;;
68803;SDS011;55787;52.678;13.314;2022-08-30T02:26:52;10.77;;;3.63;;
68803;SDS011;55787;52.678;13.314;2022-08-30T02:29:19;9.95;;;3.70;;
68803;SDS011;55787;52.678;13.314;2022-08-30T02:31:47;10.27;;;3.70;;
68803;SDS011;55787;52.678;13.314;2022-08-30T02:34:14;12.25;;;3.42;;
68803;SDS011;55787;52.678;13.314;2022-08-30T02:36:41;11.13;;;3.88;;
68803;SDS011;55787;52.678;13.314;2022-08-30T02:39:08;10.97;;;3.80;;
68803;SDS011;55787;52.678;13.314;2022-08-30T02:41:36;9.88;;;3.63;;
68803;SDS011;55787;52.678;13.314;2022-08-30T02:44:04;9.70;;;3.90;;
68803;SDS011;55787;52.678;13.314;2022-08-30T02:46:32;9.38;;;3.42;;
68803;SDS011;55787;52.678;13.314;2022-08-30T02:48:59;10.40;;;3.70;;
68803;SDS011;55787;52.678;13.314;2022-08-30T02:51:47;10.07;;;3.90;;
68803;SDS011;55787;52.678;13.314;2022-08-30T02:54:14;11.90;;;3.75;;
68803;SDS011;55787;52.678;13.314;2022-08-30T02:56:48;11.70;;;4.00;;
68803;SDS011;55787;52.678;13.314;2022-08-30T02:59:16;9.68;;;3.40;;
68803;SDS011;55787;52.678;13.314;2022-08-30T03:01:43;11.75;;;4.03;;
68803;SDS011;55787;52.678;13.314;2022-08-30T03:04:09;11.00;;;3.97;;
68803;SDS011;55787;52.678;13.314;2022-08-30T03:06:36;11.13;;;3.90;;
68803;SDS011;55787;52.678;13.314;2022-08-30T03:09:02;13.52;;;4.30;;
68803;SDS011;55787;52.678;13.314;2022-08-30T03:11:29;13.20;;;4.30;;
68803;SDS011;55787;52.678;13.314;2022-08-30T03:13:56;11.32;;;4.18;;
68803;SDS011;55787;52.678;13.314;2022-08-30T03:16:23;12.00;;;3.70;;
68803;SDS011;55787;52.678;13.314;2022-08-30T03:18:49;11.60;;;3.97;;
68803;SDS011;55787;52.678;13.314;2022-08-30T03:21:16;15.20;;;4.80;;
68803;SDS011;55787;52.678;13.314;2022-08-30T03:23:43;13.02;;;4.40;;
68803;SDS011;55787;52.678;13.314;2022-08-30T03:26:10;12.23;;;4.22;;
68803;SDS011;55787;52.678;13.314;2022-08-30T03:28:40;11.97;;;4.53;;
68803;SDS011;55787;52.678;13.314;2022-08-30T03:31:08;12.52;;;4.55;;
68803;SDS011;55787;52.678;13.314;2022-08-30T03:33:35;13.07;;;4.82;;
68803;SDS011;55787;52.678;13.314;2022-08-30T03:36:06;12.82;;;4.65;;
68803;SDS011;55787;52.678;13.314;2022-08-30T03:38:34;12.88;;;4.53;;
68803;SDS011;55787;52.678;13.314;2022-08-30T03:41:00;11.43;;;4.20;;
68803;SDS011;55787;52.678;13.314;2022-08-30T03:43:29;11.45;;;3.65;;
68803;SDS011;55787;52.678;13.314;2022-08-30T03:45:55;11.23;;;3.78;;
68803;SDS011;55787;52.678;13.314;2022-08-30T03:48:22;10.88;;;3.80;;
68803;SDS011;55787;52.678;13.314;2022-08-30T03:50:48;10.35;;;3.53;;
68803;SDS011;55787;52.678;13.314;2022-08-30T03:53:15;10.47;;;3.93;;
68803;SDS011;55787;52.678;13.314;2022-08-30T03:55:42;11.18;;;4.00;;
68803;SDS011;55787;52.678;13.314;2022-08-30T03:58:09;12.07;;;3.97;;
68803;SDS011;55787;52.678;13.314;2022-08-30T04:00:36;10.25;;;3.90;;
68803;SDS011;55787;52.678;13.314;2022-08-30T04:03:02;10.50;;;3.90;;
68803;SDS011;55787;52.678;13.314;2022-08-30T04:05:29;11.40;;;3.80;;
68803;SDS011;55787;52.678;13.314;2022-08-30T04:07:56;9.95;;;3.72;;
68803;SDS011;55787;52.678;13.314;2022-08-30T04:10:22;10.65;;;3.80;;
68803;SDS011;55787;52.678;13.314;2022-08-30T04:12:49;10.63;;;4.00;;
68803;SDS011;55787;52.678;13.314;2022-08-30T04:15:16;10.25;;;3.80;;
68803;SDS011;55787;52.678;13.314;2022-08-30T04:17:43;10.10;;;3.60;;
68803;SDS011;55787;52.678;13.314;2022-08-30T04:20:10;12.90;;;3.70;;
68803;SDS011;55787;52.678;13.314;2022-08-30T04:22:37;11.25;;;4.03;;
68803;SDS011;55787;52.678;13.314;2022-08-30T04:25:04;10.65;;;3.85;;
68803;SDS011;55787;52.678;13.314;2022-08-30T04:27:31;11.27;;;4.10;;
68803;SDS011;55787;52.678;13.314;2022-08-30T04:29:57;10.80;;;4.10;;
68803;SDS011;55787;52.678;13.314;2022-08-30T04:32:24;10.70;;;3.90;;
68803;SDS011;55787;52.678;13.314;2022-08-30T04:34:54;13.15;;;4.68;;
68803;SDS011;55787;52.678;13.314;2022-08-30T04:37:22;12.30;;;4.40;;
68803;SDS011;55787;52.678;13.314;2022-08-30T04:39:48;12.48;;;4.72;;
68803;SDS011;55787;52.678;13.314;2022-08-30T04:42:15;11.60;;;4.67;;
68803;SDS011;55787;52.678;13.314;2022-08-30T04:44:42;11.70;;;4.88;;
68803;SDS011;55787;52.678;13.314;2022-08-30T04:47:09;14.18;;;5.13;;
68803;SDS011;55787;52.678;13.314;2022-08-30T04:49:35;13.30;;;4.93;;
68803;SDS011;55787;52.678;13.314;2022-08-30T04:52:02;13.63;;;4.93;;
68803;SDS011;55787;52.678;13.314;2022-08-30T04:54:31;12.50;;;4.90;;
68803;SDS011;55787;52.678;13.314;2022-08-30T04:56:58;12.52;;;5.20;;
68803;SDS011;55787;52.678;13.314;2022-08-30T04:59:25;13.48;;;5.07;;
68803;SDS011;55787;52.678;13.314;2022-08-30T05:01:52;11.93;;;5.40;;
68803;SDS011;55787;52.678;13.314;2022-08-30T05:04:19;12.05;;;5.07;;
68803;SDS011;55787;52.678;13.314;2022-08-30T05:06:45;12.47;;;5.03;;
68803;SDS011;55787;52.678;13.314;2022-08-30T05:09:11;12.73;;;5.28;;
68803;SDS011;55787;52.678;13.314;2022-08-30T05:11:38;13.48;;;5.30;;
68803;SDS011;55787;52.678;13.314;2022-08-30T05:14:05;11.85;;;5.32;;
68803;SDS011;55787;52.678;13.314;2022-08-30T05:16:31;13.23;;;5.93;;
68803;SDS011;55787;52.678;13.314;2022-08-30T05:18:58;14.43;;;5.13;;
68803;SDS011;55787;52.678;13.314;2022-08-30T05:21:25;13.20;;;5.63;;
68803;SDS011;55787;52.678;13.314;2022-08-30T05:23:53;12.55;;;5.57;;
68803;SDS011;55787;52.678;13.314;2022-08-30T05:26:29;12.60;;;5.85;;
68803;SDS011;55787;52.678;13.314;2022-08-30T05:28:57;12.73;;;5.40;;
68803;SDS011;55787;52.678;13.314;2022-08-30T05:31:25;12.80;;;5.50;;
68803;SDS011;55787;52.678;13.314;2022-08-30T05:33:53;11.57;;;5.35;;
68803;SDS011;55787;52.678;13.314;2022-08-30T05:36:22;13.73;;;5.80;;
68803;SDS011;55787;52.678;13.314;2022-08-30T05:38:50;13.45;;;6.00;;
68803;SDS011;55787;52.678;13.314;2022-08-30T05:41:18;13.10;;;5.82;;
68803;SDS011;55787;52.678;13.314;2022-08-30T05:43:45;13.13;;;5.50;;
68803;SDS011;55787;52.678;13.314;2022-08-30T05:46:13;13.25;;;5.40;;
68803;SDS011;55787;52.678;13.314;2022-08-30T05:48:44;13.25;;;5.82;;
68803;SDS011;55787;52.678;13.314;2022-08-30T05:51:12;12.52;;;5.68;;
68803;SDS011;55787;52.678;13.314;2022-08-30T05:53:43;12.55;;;5.60;;
68803;SDS011;55787;52.678;13.314;2022-08-30T05:56:12;13.90;;;6.30;;
68803;SDS011;55787;52.678;13.314;2022-08-30T05:58:42;11.77;;;5.10;;
68803;SDS011;55787;52.678;13.314;2022-08-30T06:04:07;11.65;;;5.30;;
68803;SDS011;55787;52.678;13.314;2022-08-30T06:06:35;13.82;;;6.53;;
68803;SDS011;55787;52.678;13.314;2022-08-30T06:09:03;11.73;;;5.70;;
68803;SDS011;55787;52.678;13.314;2022-08-30T06:11:32;13.27;;;6.13;;
68803;SDS011;55787;52.678;13.314;2022-08-30T06:14:00;12.25;;;6.10;;
68803;SDS011;55787;52.678;13.314;2022-08-30T06:16:27;12.45;;;5.93;;
68803;SDS011;55787;52.678;13.314;2022-08-30T06:18:55;12.10;;;5.65;;
68803;SDS011;55787;52.678;13.314;2022-08-30T06:21:25;11.87;;;5.57;;
68803;SDS011;55787;52.678;13.314;2022-08-30T06:23:56;12.50;;;5.72;;
68803;SDS011;55787;52.678;13.314;2022-08-30T06:26:24;11.35;;;5.68;;
68803;SDS011;55787;52.678;13.314;2022-08-30T06:28:52;11.10;;;5.53;;
68803;SDS011;55787;52.678;13.314;2022-08-30T06:31:19;11.93;;;5.93;;
68803;SDS011;55787;52.678;13.314;2022-08-30T06:33:47;11.63;;;5.53;;
68803;SDS011;55787;52.678;13.314;2022-08-30T06:36:16;13.27;;;5.93;;
68803;SDS011;55787;52.678;13.314;2022-08-30T06:38:46;12.85;;;5.97;;
68803;SDS011;55787;52.678;13.314;2022-08-30T06:41:16;14.27;;;6.18;;
68803;SDS011;55787;52.678;13.314;2022-08-30T06:43:44;12.30;;;5.85;;
68803;SDS011;55787;52.678;13.314;2022-08-30T06:46:24;15.27;;;6.17;;
68803;SDS011;55787;52.678;13.314;2022-08-30T06:48:52;12.10;;;6.05;;
68803;SDS011;55787;52.678;13.314;2022-08-30T06:51:22;12.65;;;6.20;;
68803;SDS011;55787;52.678;13.314;2022-08-30T06:53:51;12.75;;;6.30;;
68803;SDS011;55787;52.678;13.314;2022-08-30T06:56:19;12.35;;;6.30;;
68803;SDS011;55787;52.678;13.314;2022-08-30T06:58:47;11.20;;;5.57;;
68803;SDS011;55787;52.678;13.314;2022-08-30T07:01:16;11.02;;;5.50;;
68803;SDS011;55787;52.678;13.314;2022-08-30T07:03:46;12.60;;;5.68;;
68803;SDS011;55787;52.678;13.314;2022-08-30T07:06:13;11.45;;;5.10;;
68803;SDS011;55787;52.678;13.314;2022-08-30T07:08:40;10.32;;;5.05;;
68803;SDS011;55787;52.678;13.314;2022-08-30T07:11:08;12.30;;;5.23;;
68803;SDS011;55787;52.678;13.314;2022-08-30T07:13:35;11.13;;;4.93;;
68803;SDS011;55787;52.678;13.314;2022-08-30T07:16:14;11.15;;;4.90;;
68803;SDS011;55787;52.678;13.314;2022-08-30T07:18:41;9.75;;;4.63;;
68803;SDS011;55787;52.678;13.314;2022-08-30T07:21:17;9.90;;;4.43;;
68803;SDS011;55787;52.678;13.314;2022-08-30T07:23:45;9.07;;;4.17;;
68803;SDS011;55787;52.678;13.314;2022-08-30T07:26:20;9.27;;;3.47;;
68803;SDS011;55787;52.678;13.314;2022-08-30T07:28:52;11.60;;;3.70;;
68803;SDS011;55787;52.678;13.314;2022-08-30T07:31:21;8.57;;;3.42;;
68803;SDS011;55787;52.678;13.314;2022-08-30T07:33:48;7.63;;;2.97;;
68803;SDS011;55787;52.678;13.314;2022-08-30T07:36:14;6.70;;;2.50;;
68803;SDS011;55787;52.678;13.314;2022-08-30T07:38:43;6.40;;;2.35;;
68803;SDS011;55787;52.678;13.314;2022-08-30T07:41:15;6.25;;;1.90;;
68803;SDS011;55787;52.678;13.314;2022-08-30T07:43:42;5.78;;;1.90;;
68803;SDS011;55787;52.678;13.314;2022-08-30T07:46:08;6.32;;;1.70;;
68803;SDS011;55787;52.678;13.314;2022-08-30T07:48:35;6.17;;;1.20;;
68803;SDS011;55787;52.678;13.314;2022-08-30T07:51:02;6.22;;;1.42;;
68803;SDS011;55787;52.678;13.314;2022-08-30T07:53:30;5.00;;;1.00;;
68803;SDS011;55787;52.678;13.314;2022-08-30T07:55:57;5.03;;;0.95;;
68803;SDS011;55787;52.678;13.314;2022-08-30T07:58:23;5.50;;;0.98;;
68803;SDS011;55787;52.678;13.314;2022-08-30T08:00:50;4.70;;;0.80;;
68803;SDS011;55787;52.678;13.314;2022-08-30T08:03:16;4.95;;;0.82;;
68803;SDS011;55787;52.678;13.314;2022-08-30T08:05:44;4.78;;;0.77;;
68803;SDS011;55787;52.678;13.314;2022-08-30T08:08:12;5.68;;;1.02;;
68803;SDS011;55787;52.678;13.314;2022-08-30T08:10:39;4.63;;;0.80;;
68803;SDS011;55787;52.678;13.314;2022-08-30T08:13:07;5.83;;;0.70;;
68803;SDS011;55787;52.678;13.314;2022-08-30T08:15:34;4.07;;;0.50;;
68803;SDS011;55787;52.678;13.314;2022-08-30T08:18:00;6.18;;;0.60;;
68803;SDS011;55787;52.678;13.314;2022-08-30T08:20:27;4.22;;;0.70;;
68803;SDS011;55787;52.678;13.314;2022-08-30T08:22:54;4.32;;;0.50;;
68803;SDS011;55787;52.678;13.314;2022-08-30T08:25:20;6.43;;;1.47;;
68803;SDS011;55787;52.678;13.314;2022-08-30T08:27:48;5.43;;;0.63;;
68803;SDS011;55787;52.678;13.314;2022-08-30T08:30:20;4.85;;;0.60;;
68803;SDS011;55787;52.678;13.314;2022-08-30T08:32:47;4.30;;;0.60;;
68803;SDS011;55787;52.678;13.314;2022-08-30T08:35:15;4.60;;;0.63;;
68803;SDS011;55787;52.678;13.314;2022-08-30T08:37:42;4.90;;;0.70;;
68803;SDS011;55787;52.678;13.314;2022-08-30T08:40:12;4.53;;;0.80;;
68803;SDS011;55787;52.678;13.314;2022-08-30T08:45:46;3.97;;;0.57;;
68803;SDS011;55787;52.678;13.314;2022-08-30T08:51:26;4.60;;;0.60;;
68803;SDS011;55787;52.678;13.314;2022-08-30T08:54:20;4.53;;;0.60;;
68803;SDS011;55787;52.678;13.314;2022-08-30T08:57:08;5.30;;;0.65;;
68803;SDS011;55787;52.678;13.314;2022-08-30T08:59:41;5.10;;;0.65;;
68803;SDS011;55787;52.678;13.314;2022-08-30T09:02:27;5.32;;;0.75;;
68803;SDS011;55787;52.678;13.314;2022-08-30T09:05:00;4.03;;;0.50;;
68803;SDS011;55787;52.678;13.314;2022-08-30T09:07:31;4.18;;;0.57;;
68803;SDS011;55787;52.678;13.314;2022-08-30T09:10:03;4.68;;;0.77;;
68803;SDS011;55787;52.678;13.314;2022-08-30T09:12:30;4.65;;;0.80;;
68803;SDS011;55787;52.678;13.314;2022-08-30T09:15:18;4.65;;;0.75;;
68803;SDS011;55787;52.678;13.314;2022-08-30T09:17:59;5.13;;;0.70;;
68803;SDS011;55787;52.678;13.314;2022-08-30T09:20:46;5.93;;;0.60;;
68803;SDS011;55787;52.678;13.314;2022-08-30T09:26:01;4.03;;;0.50;;
68803;SDS011;55787;52.678;13.314;2022-08-30T09:28:34;5.32;;;0.60;;
68803;SDS011;55787;52.678;13.314;2022-08-30T09:31:17;3.33;;;0.40;;
68803;SDS011;55787;52.678;13.314;2022-08-30T09:33:55;5.07;;;0.60;;
68803;SDS011;55787;52.678;13.314;2022-08-30T09:36:27;4.55;;;0.60;;
68803;SDS011;55787;52.678;13.314;2022-08-30T09:39:03;5.30;;;0.50;;
68803;SDS011;55787;52.678;13.314;2022-08-30T09:41:36;3.78;;;0.50;;
68803;SDS011;55787;52.678;13.314;2022-08-30T09:46:50;3.60;;;0.40;;
68803;SDS011;55787;52.678;13.314;2022-08-30T09:49:28;4.25;;;0.60;;
68803;SDS011;55787;52.678;13.314;2022-08-30T09:52:12;5.95;;;0.50;;
68803;SDS011;55787;52.678;13.314;2022-08-30T10:01:19;5.35;;;0.50;;
68803;SDS011;55787;52.678;13.314;2022-08-30T10:06:38;3.40;;;0.52;;
68803;SDS011;55787;52.678;13.314;2022-08-30T10:09:12;3.70;;;0.40;;
68803;SDS011;55787;52.678;13.314;2022-08-30T10:23:03;4.25;;;0.70;;
68803;SDS011;55787;52.678;13.314;2022-08-30T10:25:35;4.70;;;0.70;;
68803;SDS011;55787;52.678;13.314;2022-08-30T10:28:12;4.70;;;0.60;;
68803;SDS011;55787;52.678;13.314;2022-08-30T10:30:46;4.22;;;0.82;;
68803;SDS011;55787;52.678;13.314;2022-08-30T10:33:20;4.47;;;0.70;;
68803;SDS011;55787;52.678;13.314;2022-08-30T10:35:55;4.10;;;0.60;;
68803;SDS011;55787;52.678;13.314;2022-08-30T10:38:24;3.80;;;0.40;;
68803;SDS011;55787;52.678;13.314;2022-08-30T10:43:48;3.70;;;0.50;;
68803;SDS011;55787;52.678;13.314;2022-08-30T10:49:03;5.40;;;0.60;;
68803;SDS011;55787;52.678;13.314;2022-08-30T10:51:50;4.23;;;0.50;;
68803;SDS011;55787;52.678;13.314;2022-08-30T10:56:57;4.57;;;0.50;;
68803;SDS011;55787;52.678;13.314;2022-08-30T10:59:25;3.35;;;0.50;;
68803;SDS011;55787;52.678;13.314;2022-08-30T11:04:55;4.53;;;0.70;;
68803;SDS011;55787;52.678;13.314;2022-08-30T11:13:25;3.78;;;0.70;;
68803;SDS011;55787;52.678;13.314;2022-08-30T11:18:44;4.23;;;0.83;;
68803;SDS011;55787;52.678;13.314;2022-08-30T11:24:09;4.82;;;0.90;;
68803;SDS011;55787;52.678;13.314;2022-08-30T11:29:27;6.10;;;0.77;;
68803;SDS011;55787;52.678;13.314;2022-08-30T11:37:31;4.63;;;0.90;;
68803;SDS011;55787;52.678;13.314;2022-08-30T11:42:43;4.72;;;0.70;;
68803;SDS011;55787;52.678;13.314;2022-08-30T11:50:29;6.45;;;1.15;;
68803;SDS011;55787;52.678;13.314;2022-08-30T11:56:21;5.78;;;1.38;;
68803;SDS011;55787;52.678;13.314;2022-08-30T11:59:00;6.13;;;1.60;;
68803;SDS011;55787;52.678;13.314;2022-08-30T12:01:36;5.07;;;1.05;;
68803;SDS011;55787;52.678;13.314;2022-08-30T12:06:49;5.60;;;1.80;;
68803;SDS011;55787;52.678;13.314;2022-08-30T12:17:23;5.45;;;1.58;;
68803;SDS011;55787;52.678;13.314;2022-08-30T12:23:41;6.22;;;1.40;;
68803;SDS011;55787;52.678;13.314;2022-08-30T12:26:12;5.77;;;1.40;;
68803;SDS011;55787;52.678;13.314;2022-08-30T12:28:52;5.70;;;1.75;;
68803;SDS011;55787;52.678;13.314;2022-08-30T12:31:31;5.88;;;1.63;;
68803;SDS011;55787;52.678;13.314;2022-08-30T12:33:59;5.88;;;1.60;;
68803;SDS011;55787;52.678;13.314;2022-08-30T12:36:47;5.90;;;1.48;;
68803;SDS011;55787;52.678;13.314;2022-08-30T12:39:22;5.07;;;1.30;;
68803;SDS011;55787;52.678;13.314;2022-08-30T12:41:52;6.00;;;1.40;;
68803;SDS011;55787;52.678;13.314;2022-08-30T12:44:23;5.95;;;1.30;;
68803;SDS011;55787;52.678;13.314;2022-08-30T12:46:53;5.80;;;1.30;;
68803;SDS011;55787;52.678;13.314;2022-08-30T12:49:30;6.07;;;1.10;;
68803;SDS011;55787;52.678;13.314;2022-08-30T12:52:18;4.90;;;1.20;;
68803;SDS011;55787;52.678;13.314;2022-08-30T12:54:54;6.43;;;1.15;;
68803;SDS011;55787;52.678;13.314;2022-08-30T12:58:04;5.20;;;1.00;;
68803;SDS011;55787;52.678;13.314;2022-08-30T13:00:39;5.00;;;1.00;;
68803;SDS011;55787;52.678;13.314;2022-08-30T13:06:02;5.20;;;1.10;;
68803;SDS011;55787;52.678;13.314;2022-08-30T13:08:36;5.25;;;1.02;;
68803;SDS011;55787;52.678;13.314;2022-08-30T13:13:47;5.07;;;1.35;;
68803;SDS011;55787;52.678;13.314;2022-08-30T13:18:48;4.63;;;0.80;;
68803;SDS011;55787;52.678;13.314;2022-08-30T13:23:48;5.28;;;0.90;;
68803;SDS011;55787;52.678;13.314;2022-08-30T13:26:16;5.60;;;1.00;;
68803;SDS011;55787;52.678;13.314;2022-08-30T13:28:49;5.07;;;1.00;;
68803;SDS011;55787;52.678;13.314;2022-08-30T13:31:18;4.47;;;0.80;;
68803;SDS011;55787;52.678;13.314;2022-08-30T13:33:47;5.65;;;0.90;;
68803;SDS011;55787;52.678;13.314;2022-08-30T13:36:18;4.35;;;0.90;;
68803;SDS011;55787;52.678;13.314;2022-08-30T13:38:49;5.00;;;0.93;;
68803;SDS011;55787;52.678;13.314;2022-08-30T13:41:17;4.80;;;0.98;;
68803;SDS011;55787;52.678;13.314;2022-08-30T13:43:45;4.20;;;0.93;;
68803;SDS011;55787;52.678;13.314;2022-08-30T13:46:32;5.75;;;1.00;;
68803;SDS011;55787;52.678;13.314;2022-08-30T13:49:04;4.75;;;1.15;;
68803;SDS011;55787;52.678;13.314;2022-08-30T13:51:52;4.90;;;0.90;;
68803;SDS011;55787;52.678;13.314;2022-08-30T13:54:39;5.00;;;1.20;;
68803;SDS011;55787;52.678;13.314;2022-08-30T13:57:06;5.00;;;1.10;;
68803;SDS011;55787;52.678;13.314;2022-08-30T13:59:32;4.60;;;0.90;;
68803;SDS011;55787;52.678;13.314;2022-08-30T14:01:59;4.95;;;1.05;;
68803;SDS011;55787;52.678;13.314;2022-08-30T14:04:35;5.95;;;1.05;;
68803;SDS011;55787;52.678;13.314;2022-08-30T14:07:02;5.47;;;1.27;;
68803;SDS011;55787;52.678;13.314;2022-08-30T14:09:46;5.00;;;1.30;;
68803;SDS011;55787;52.678;13.314;2022-08-30T14:12:12;5.03;;;1.10;;
68803;SDS011;55787;52.678;13.314;2022-08-30T14:14:39;5.30;;;1.38;;
68803;SDS011;55787;52.678;13.314;2022-08-30T14:17:09;6.57;;;1.52;;
68803;SDS011;55787;52.678;13.314;2022-08-30T14:19:37;5.40;;;1.20;;
68803;SDS011;55787;52.678;13.314;2022-08-30T14:22:04;4.97;;;1.30;;
68803;SDS011;55787;52.678;13.314;2022-08-30T14:24:30;5.28;;;1.20;;
68803;SDS011;55787;52.678;13.314;2022-08-30T14:26:57;6.28;;;1.00;;
68803;SDS011;55787;52.678;13.314;2022-08-30T14:29:24;6.03;;;1.20;;
68803;SDS011;55787;52.678;13.314;2022-08-30T14:31:54;6.18;;;1.52;;
68803;SDS011;55787;52.678;13.314;2022-08-30T14:34:24;5.23;;;1.27;;
68803;SDS011;55787;52.678;13.314;2022-08-30T14:36:51;4.90;;;1.20;;
68803;SDS011;55787;52.678;13.314;2022-08-30T14:39:18;5.55;;;1.60;;
68803;SDS011;55787;52.678;13.314;2022-08-30T14:41:46;7.93;;;1.30;;
68803;SDS011;55787;52.678;13.314;2022-08-30T14:44:16;5.13;;;1.10;;
68803;SDS011;55787;52.678;13.314;2022-08-30T14:46:43;5.40;;;1.00;;
68803;SDS011;55787;52.678;13.314;2022-08-30T14:49:11;5.38;;;1.10;;
68803;SDS011;55787;52.678;13.314;2022-08-30T14:51:38;6.22;;;1.38;;
68803;SDS011;55787;52.678;13.314;2022-08-30T14:54:05;5.03;;;1.13;;
68803;SDS011;55787;52.678;13.314;2022-08-30T14:56:33;7.05;;;1.20;;
68803;SDS011;55787;52.678;13.314;2022-08-30T14:59:02;4.80;;;1.10;;
68803;SDS011;55787;52.678;13.314;2022-08-30T15:01:28;5.05;;;0.90;;
68803;SDS011;55787;52.678;13.314;2022-08-30T15:03:56;4.75;;;1.02;;
68803;SDS011;55787;52.678;13.314;2022-08-30T15:06:24;4.88;;;1.08;;
68803;SDS011;55787;52.678;13.314;2022-08-30T15:08:51;5.53;;;1.27;;
68803;SDS011;55787;52.678;13.314;2022-08-30T15:11:19;5.00;;;1.00;;
68803;SDS011;55787;52.678;13.314;2022-08-30T15:13:47;5.40;;;1.25;;
68803;SDS011;55787;52.678;13.314;2022-08-30T15:16:19;5.32;;;1.10;;
68803;SDS011;55787;52.678;13.314;2022-08-30T15:18:51;4.82;;;1.10;;
68803;SDS011;55787;52.678;13.314;2022-08-30T15:21:25;4.93;;;1.10;;
68803;SDS011;55787;52.678;13.314;2022-08-30T15:24:01;5.30;;;1.03;;
68803;SDS011;55787;52.678;13.314;2022-08-30T15:26:29;4.93;;;1.10;;
68803;SDS011;55787;52.678;13.314;2022-08-30T15:28:56;5.35;;;1.10;;
68803;SDS011;55787;52.678;13.314;2022-08-30T15:31:24;5.80;;;1.20;;
68803;SDS011;55787;52.678;13.314;2022-08-30T15:33:56;6.55;;;1.27;;
68803;SDS011;55787;52.678;13.314;2022-08-30T15:36:24;5.03;;;1.40;;
68803;SDS011;55787;52.678;13.314;2022-08-30T15:38:51;4.90;;;1.20;;
68803;SDS011;55787;52.678;13.314;2022-08-30T15:41:21;5.00;;;1.30;;
68803;SDS011;55787;52.678;13.314;2022-08-30T15:43:48;5.20;;;1.30;;
68803;SDS011;55787;52.678;13.314;2022-08-30T15:48:44;4.93;;;1.30;;
68803;SDS011;55787;52.678;13.314;2022-08-30T15:51:12;5.90;;;1.35;;
68803;SDS011;55787;52.678;13.314;2022-08-30T15:53:39;6.22;;;1.80;;
68803;SDS011;55787;52.678;13.314;2022-08-30T15:56:07;6.43;;;1.83;;
68803;SDS011;55787;52.678;13.314;2022-08-30T15:58:35;5.93;;;2.00;;
68803;SDS011;55787;52.678;13.314;2022-08-30T16:01:04;7.10;;;2.03;;
68803;SDS011;55787;52.678;13.314;2022-08-30T16:03:31;6.47;;;1.80;;
68803;SDS011;55787;52.678;13.314;2022-08-30T16:06:00;5.82;;;1.75;;
68803;SDS011;55787;52.678;13.314;2022-08-30T16:08:27;5.10;;;1.45;;
68803;SDS011;55787;52.678;13.314;2022-08-30T16:10:55;6.93;;;1.60;;
68803;SDS011;55787;52.678;13.314;2022-08-30T16:13:22;5.00;;;1.30;;
68803;SDS011;55787;52.678;13.314;2022-08-30T16:15:49;5.90;;;1.40;;
68803;SDS011;55787;52.678;13.314;2022-08-30T16:18:15;5.85;;;1.38;;
68803;SDS011;55787;52.678;13.314;2022-08-30T16:20:42;5.90;;;1.20;;
68803;SDS011;55787;52.678;13.314;2022-08-30T16:23:09;7.13;;;1.42;;
68803;SDS011;55787;52.678;13.314;2022-08-30T16:25:36;5.00;;;1.13;;
68803;SDS011;55787;52.678;13.314;2022-08-30T16:28:06;5.75;;;1.20;;
68803;SDS011;55787;52.678;13.314;2022-08-30T16:30:34;5.72;;;1.27;;